Time;durP1;ratioP1;P1;durP2;ratioP2;P2;SDS_P1;SDS_P2;PMS_P1;PMS_P2;Temp;Humidity;BMP_temperature;BMP_pressure;BME280_temperature;BME280_humidity;BME280_pressure;Samples;Min_cycle;Max_cycle;Signal;HPM_P1;HPM_P2
2021/10/28 00:13:11;;;;;;;102.30;65.75;;;128.90;2252.80;;;;;;5095044;28;20038;-80
2021/10/28 00:15:39;;;;;;;102.20;68.80;;;128.90;2252.80;;;;;;5093273;28;20020;-78
2021/10/28 00:18:15;;;;;;;119.13;77.20;;;128.90;2252.80;;;;;;5093437;28;20016;-79
2021/10/28 00:20:41;;;;;;;118.80;80.38;;;128.90;2252.80;;;;;;5093539;28;20440;-77
2021/10/28 00:23:08;;;;;;;96.88;66.95;;;128.70;2252.80;;;;;;5093365;28;20039;-77
2021/10/28 00:25:38;;;;;;;85.40;56.42;;;128.80;2252.80;;;;;;5093373;28;20067;-77
2021/10/28 00:28:06;;;;;;;89.68;61.55;;;128.40;2252.80;;;;;;5093014;28;20020;-80
2021/10/28 00:30:32;;;;;;;87.55;60.63;;;128.30;2252.80;;;;;;5093626;28;20375;-76
2021/10/28 00:32:58;;;;;;;92.60;65.53;;;128.10;2252.80;;;;;;5093193;28;20028;-79
2021/10/28 00:35:24;;;;;;;99.00;65.65;;;128.10;2252.80;;;;;;5092898;28;20027;-77
2021/10/28 00:37:50;;;;;;;105.55;64.80;;;128.10;2252.80;;;;;;5093222;28;20028;-76
2021/10/28 00:40:16;;;;;;;128.75;77.25;;;128.30;2252.80;;;;;;5093210;28;20062;-78
2021/10/28 00:42:42;;;;;;;119.88;77.25;;;128.40;2252.80;;;;;;5094120;28;20060;-78
2021/10/28 00:45:08;;;;;;;109.95;71.55;;;128.50;2252.80;;;;;;5093085;28;20184;-77
2021/10/28 00:47:37;;;;;;;97.25;66.90;;;128.70;2252.80;;;;;;5093050;28;20027;-77
2021/10/28 00:50:05;;;;;;;120.68;81.25;;;128.90;2252.80;;;;;;5093686;28;20107;-77
2021/10/28 00:52:31;;;;;;;102.82;71.32;;;128.80;2252.80;;;;;;5092919;28;20101;-77
2021/10/28 00:54:57;;;;;;;109.50;75.13;;;128.90;2252.80;;;;;;5094433;28;20428;-77
2021/10/28 00:57:22;;;;;;;87.15;59.95;;;128.90;2252.80;;;;;;5092695;28;20106;-77
2021/10/28 00:59:48;;;;;;;95.53;64.65;;;153.60;2252.80;;;;;;5092579;28;20443;-76
2021/10/28 01:02:14;;;;;;;97.35;63.53;;;153.60;2252.80;;;;;;5092734;28;20028;-76
2021/10/28 01:04:41;;;;;;;103.82;66.40;;;153.60;2252.80;;;;;;5092317;28;20020;-76
2021/10/28 01:07:07;;;;;;;105.82;68.40;;;128.90;2252.80;;;;;;5094124;28;20041;-75
2021/10/28 01:09:33;;;;;;;100.43;66.28;;;128.70;2252.80;;;;;;5094122;28;20349;-77
2021/10/28 01:11:59;;;;;;;92.20;62.70;;;128.90;2252.80;;;;;;5092852;28;20508;-76
2021/10/28 01:14:25;;;;;;;112.15;71.28;;;153.60;2252.80;;;;;;5092705;28;20020;-79
2021/10/28 01:16:57;;;;;;;100.80;65.25;;;128.90;2252.80;;;;;;5094321;28;20043;-78
2021/10/28 01:19:23;;;;;;;95.63;62.60;;;153.60;2252.80;;;;;;5093206;28;20020;-77
2021/10/28 01:21:50;;;;;;;91.13;59.17;;;128.80;2252.80;;;;;;5093885;28;20052;-78
2021/10/28 01:24:17;;;;;;;99.07;67.43;;;128.70;2252.80;;;;;;5093648;28;20398;-76
2021/10/28 01:26:43;;;;;;;83.95;58.47;;;128.70;2252.80;;;;;;5092922;28;20020;-77
2021/10/28 01:29:09;;;;;;;87.00;59.45;;;128.50;2252.80;;;;;;5093186;28;20115;-76
2021/10/28 01:31:36;;;;;;;84.78;56.85;;;128.00;2252.80;;;;;;5093700;28;20062;-78
2021/10/28 01:34:04;;;;;;;79.82;53.75;;;103.20;2227.20;;;;;;5092703;28;20024;-76
2021/10/28 01:36:31;;;;;;;73.88;51.70;;;103.00;2227.20;;;;;;5092691;28;20367;-76
2021/10/28 01:38:58;;;;;;;71.35;49.58;;;103.00;2227.20;;;;;;5092170;28;20363;-78
2021/10/28 01:41:28;;;;;;;76.38;50.47;;;103.10;2227.20;;;;;;5092375;28;20089;-77
2021/10/28 01:43:57;;;;;;;70.00;46.53;;;103.00;2227.20;;;;;;5092480;28;20115;-76
2021/10/28 01:46:23;;;;;;;60.97;42.05;;;103.00;2227.20;;;;;;5093652;28;20100;-77
2021/10/28 01:48:49;;;;;;;64.57;43.65;;;103.20;2227.20;;;;;;5093523;28;20056;-76
2021/10/28 01:51:23;;;;;;;69.47;44.53;;;103.20;2227.20;;;;;;5092346;28;20474;-77
2021/10/28 01:53:50;;;;;;;60.67;41.58;;;102.90;2227.20;;;;;;5093390;28;20024;-77
2021/10/28 01:56:16;;;;;;;65.93;41.67;;;102.80;2227.20;;;;;;5092128;28;20456;-77
2021/10/28 01:58:42;;;;;;;60.60;41.72;;;102.80;2227.20;;;;;;5091976;28;20063;-77
2021/10/28 02:01:08;;;;;;;58.28;39.25;;;102.90;2227.20;;;;;;5091927;28;20067;-77
2021/10/28 02:03:35;;;;;;;61.10;41.72;;;102.90;2227.20;;;;;;5093492;28;20028;-76
2021/10/28 02:06:01;;;;;;;79.35;51.63;;;102.50;2227.20;;;;;;5093170;28;20020;-77
2021/10/28 02:08:27;;;;;;;69.45;49.22;;;102.80;2227.20;;;;;;5092031;28;20024;-77
2021/10/28 02:10:54;;;;;;;66.47;47.30;;;102.90;2227.20;;;;;;5092218;28;20024;-80
2021/10/28 02:13:21;;;;;;;66.72;44.53;;;103.10;2227.20;;;;;;5091681;28;20027;-80
2021/10/28 02:15:47;;;;;;;63.53;45.50;;;103.10;2227.20;;;;;;5092757;28;20379;-77
2021/10/28 02:18:13;;;;;;;74.03;46.67;;;103.10;2227.20;;;;;;5097708;28;20072;-80
2021/10/28 02:20:40;;;;;;;74.43;47.90;;;102.90;2227.20;;;;;;5095852;28;20057;-81
2021/10/28 02:23:07;;;;;;;61.92;43.63;;;103.10;2227.20;;;;;;5097010;28;20088;-78
2021/10/28 02:25:33;;;;;;;67.60;44.70;;;103.00;2227.20;;;;;;5095863;28;20028;-80
2021/10/28 02:27:59;;;;;;;71.75;48.88;;;103.00;2227.20;;;;;;5096848;28;20023;-78
2021/10/28 02:30:26;;;;;;;64.43;42.90;;;102.90;2227.20;;;;;;5095692;28;20353;-77
2021/10/28 02:32:52;;;;;;;64.93;42.78;;;103.00;2227.20;;;;;;5097042;28;20455;-78
2021/10/28 02:35:18;;;;;;;66.22;44.22;;;103.10;2227.20;;;;;;5095502;28;20020;-78
2021/10/28 02:37:44;;;;;;;72.20;49.30;;;102.90;2227.20;;;;;;5095552;28;20016;-77
2021/10/28 02:40:11;;;;;;;72.68;48.20;;;102.90;2227.20;;;;;;5096575;28;20065;-80
2021/10/28 02:42:37;;;;;;;76.97;46.60;;;102.90;2227.20;;;;;;5094952;28;20459;-79
2021/10/28 02:45:04;;;;;;;72.75;47.75;;;102.90;2227.20;;;;;;5094989;28;20042;-75
2021/10/28 02:47:30;;;;;;;72.40;47.25;;;102.90;2227.20;;;;;;5094844;28;20463;-78
2021/10/28 02:49:56;;;;;;;68.32;43.28;;;103.00;2227.20;;;;;;5095022;28;20108;-77
2021/10/28 02:52:22;;;;;;;65.78;43.42;;;103.00;2227.20;;;;;;5096566;28;20027;-76
2021/10/28 02:54:49;;;;;;;68.65;44.58;;;103.00;2227.20;;;;;;5094784;28;20016;-76
2021/10/28 02:57:15;;;;;;;69.07;43.13;;;102.80;2227.20;;;;;;5095061;28;20047;-76
2021/10/28 02:59:41;;;;;;;62.85;41.08;;;102.70;2227.20;;;;;;5096011;28;20460;-79
2021/10/28 03:02:07;;;;;;;70.63;43.10;;;102.90;2227.20;;;;;;5095829;28;20028;-79
2021/10/28 03:04:32;;;;;;;70.30;45.15;;;102.80;2227.20;;;;;;5095158;28;20020;-76
2021/10/28 03:06:59;;;;;;;73.45;43.92;;;102.70;2227.20;;;;;;5094928;28;20020;-77
2021/10/28 03:09:26;;;;;;;73.63;45.00;;;102.70;2227.20;;;;;;5094501;28;20316;-78
2021/10/28 03:11:57;;;;;;;83.32;49.38;;;102.60;2227.20;;;;;;5094780;28;20152;-76
2021/10/28 03:14:35;;;;;;;73.03;44.80;;;102.60;2227.20;;;;;;5096165;28;20016;-80
2021/10/28 03:27:26;;;;;;;94.28;58.03;;;102.60;2227.20;;;;;;5094926;28;20031;-76
2021/10/28 03:29:52;;;;;;;117.70;77.75;;;102.40;2227.20;;;;;;5094093;28;20030;-76
2021/10/28 03:32:20;;;;;;;125.07;84.05;;;102.50;2227.20;;;;;;5094450;28;20111;-76
2021/10/28 03:34:47;;;;;;;83.05;49.13;;;77.60;2227.20;;;;;;5095500;28;20035;-78
2021/10/28 03:37:58;;;;;;;79.53;44.92;;;77.70;2227.20;;;;;;5094139;28;20077;-79
2021/10/28 03:41:37;;;;;;;84.72;47.97;;;77.70;2227.20;;;;;;5089439;28;20352;-79
2021/10/28 04:17:49;;;;;;;80.53;52.55;;;77.40;2227.20;;;;;;5094853;28;20031;-78
2021/10/28 04:28:56;;;;;;;71.15;44.08;;;77.30;2227.20;;;;;;5094762;28;20062;-77
2021/10/28 04:31:24;;;;;;;72.20;45.58;;;77.50;2227.20;;;;;;5093615;28;20024;-78
2021/10/28 04:33:50;;;;;;;70.10;45.72;;;77.10;2227.20;;;;;;5092730;28;20028;-78
2021/10/28 04:36:16;;;;;;;84.40;51.95;;;77.40;2227.20;;;;;;5093585;28;20107;-75
2021/10/28 04:38:42;;;;;;;90.07;56.58;;;77.20;2227.20;;;;;;5093190;28;20122;-78
2021/10/28 04:41:08;;;;;;;86.55;55.90;;;77.10;2227.20;;;;;;5093589;28;20024;-80
2021/10/28 04:43:34;;;;;;;84.00;51.85;;;77.10;2227.20;;;;;;5093091;28;20448;-80
2021/10/28 04:46:00;;;;;;;88.75;55.83;;;77.20;2227.20;;;;;;5092936;28;20077;-81
2021/10/28 04:48:25;;;;;;;83.63;52.40;;;77.10;2227.20;;;;;;5092735;28;20020;-77
2021/10/28 04:50:51;;;;;;;83.88;52.88;;;77.30;2227.20;;;;;;5092995;28;20073;-80
2021/10/28 04:53:17;;;;;;;93.75;57.35;;;77.20;2227.20;;;;;;5093042;28;20391;-81
2021/10/28 04:55:43;;;;;;;113.18;73.70;;;77.30;2227.20;;;;;;5092548;28;20383;-81
2021/10/28 04:58:09;;;;;;;101.35;64.80;;;77.30;2227.20;;;;;;5092972;28;20024;-80
2021/10/28 05:00:35;;;;;;;96.45;56.35;;;77.20;2227.20;;;;;;5092219;28;20044;-80
2021/10/28 05:03:01;;;;;;;87.63;57.47;;;77.10;2227.20;;;;;;5092775;28;20032;-80
2021/10/28 05:05:27;;;;;;;88.47;53.05;;;77.10;2227.20;;;;;;5092683;28;20024;-80
2021/10/28 05:07:53;;;;;;;80.45;49.60;;;77.20;2227.20;;;;;;5093760;28;20106;-80
2021/10/28 05:10:18;;;;;;;92.07;54.97;;;77.20;2227.20;;;;;;5093756;28;20031;-81
2021/10/28 05:12:44;;;;;;;97.13;57.55;;;77.10;2227.20;;;;;;5092773;28;20020;-81
2021/10/28 05:15:10;;;;;;;118.30;67.88;;;77.10;2227.20;;;;;;5092434;28;20485;-81
2021/10/28 05:17:36;;;;;;;109.35;64.05;;;76.90;2227.20;;;;;;5093977;28;20024;-80
2021/10/28 05:20:03;;;;;;;98.72;55.85;;;77.00;2227.20;;;;;;5094276;28;20436;-79
2021/10/28 05:22:29;;;;;;;106.03;63.22;;;77.10;2227.20;;;;;;5093519;28;20081;-79
2021/10/28 05:24:54;;;;;;;117.60;64.70;;;76.90;2227.20;;;;;;5092651;28;20401;-80
2021/10/28 05:27:20;;;;;;;104.40;60.03;;;77.00;2227.20;;;;;;5092576;28;20028;-79
2021/10/28 05:29:46;;;;;;;105.00;64.60;;;77.10;2227.20;;;;;;5092350;28;20028;-77
2021/10/28 05:32:12;;;;;;;101.68;61.40;;;77.20;2227.20;;;;;;5092484;28;20051;-78
2021/10/28 05:34:39;;;;;;;103.97;61.85;;;77.20;2227.20;;;;;;5092278;28;20016;-82
2021/10/28 05:37:05;;;;;;;107.68;64.47;;;77.00;2227.20;;;;;;5093976;28;20056;-82
2021/10/28 05:39:31;;;;;;;123.15;67.15;;;77.10;2227.20;;;;;;5092615;28;20025;-79
2021/10/28 05:41:57;;;;;;;117.90;65.82;;;77.10;2227.20;;;;;;5092381;28;20024;-80
2021/10/28 05:44:23;;;;;;;94.10;54.40;;;77.10;2227.20;;;;;;5093514;28;20024;-81
2021/10/28 05:46:49;;;;;;;94.78;58.25;;;77.20;2227.20;;;;;;5092327;28;20031;-80
2021/10/28 05:49:15;;;;;;;91.43;59.45;;;77.10;2227.20;;;;;;5092657;28;20044;-81
2021/10/28 05:51:41;;;;;;;87.85;54.72;;;77.20;2227.20;;;;;;5094170;28;20030;-79
2021/10/28 05:54:07;;;;;;;98.30;59.33;;;77.10;2227.20;;;;;;5096028;28;20024;-79
2021/10/28 05:56:33;;;;;;;98.82;61.67;;;77.10;2227.20;;;;;;5096029;28;20027;-77
2021/10/28 05:58:59;;;;;;;100.97;61.33;;;77.20;2227.20;;;;;;5096385;28;20020;-77
2021/10/28 06:01:25;;;;;;;91.38;56.22;;;77.20;2227.20;;;;;;5096195;28;20467;-77
2021/10/28 06:03:51;;;;;;;90.18;55.92;;;77.20;2227.20;;;;;;5095803;28;20034;-79
2021/10/28 06:06:16;;;;;;;160.32;112.07;;;77.10;2227.20;;;;;;5096181;28;20467;-78
2021/10/28 06:08:42;;;;;;;94.63;63.30;;;77.10;2227.20;;;;;;5096271;28;20020;-76
2021/10/28 06:11:08;;;;;;;100.82;60.25;;;77.10;2227.20;;;;;;5095887;28;20027;-79
2021/10/28 06:13:42;;;;;;;110.03;72.45;;;77.00;2227.20;;;;;;5097126;28;20031;-78
2021/10/28 06:16:09;;;;;;;99.70;63.33;;;77.20;2227.20;;;;;;5096523;28;20024;-78
2021/10/28 06:18:38;;;;;;;91.57;63.00;;;77.20;2227.20;;;;;;5095774;28;20367;-82
2021/10/28 06:21:05;;;;;;;89.00;54.67;;;77.10;2227.20;;;;;;5096067;28;20110;-80
2021/10/28 06:23:32;;;;;;;82.47;50.83;;;77.10;2227.20;;;;;;5095798;28;20032;-76
2021/10/28 06:25:58;;;;;;;85.43;48.33;;;77.10;2227.20;;;;;;5096869;28;20055;-77
2021/10/28 06:28:24;;;;;;;84.28;51.55;;;77.20;2227.20;;;;;;5095855;28;20027;-77
2021/10/28 06:30:50;;;;;;;82.38;51.80;;;77.20;2227.20;;;;;;5095679;28;20028;-76
2021/10/28 06:33:20;;;;;;;85.72;51.13;;;77.30;2227.20;;;;;;5095374;28;20024;-80
2021/10/28 06:35:46;;;;;;;93.95;50.95;;;77.10;2227.20;;;;;;5096697;28;20020;-79
2021/10/28 06:38:12;;;;;;;85.28;53.13;;;77.20;2227.20;;;;;;5095500;28;20042;-81
2021/10/28 06:40:39;;;;;;;81.47;50.92;;;77.00;2227.20;;;;;;5095067;28;20020;-79
2021/10/28 06:43:05;;;;;;;94.90;60.53;;;77.10;2227.20;;;;;;5095367;28;20039;-78
2021/10/28 06:45:32;;;;;;;89.50;56.60;;;77.20;2227.20;;;;;;5095040;28;20065;-81
2021/10/28 06:47:58;;;;;;;92.10;58.88;;;77.30;2227.20;;;;;;5096303;28;20035;-81
2021/10/28 06:50:30;;;;;;;80.82;51.70;;;77.30;2227.20;;;;;;5096527;28;20351;-79
2021/10/28 07:03:36;;;;;;;78.38;52.35;;;77.50;2227.20;;;;;;5094855;28;20116;-80
2021/10/28 07:06:04;;;;;;;88.07;57.38;;;77.60;2227.20;;;;;;5094957;28;20093;-75
2021/10/28 07:08:32;;;;;;;96.05;59.42;;;77.60;2227.20;;;;;;5094634;28;20020;-81
2021/10/28 07:10:59;;;;;;;96.88;60.67;;;77.50;2227.20;;;;;;5094855;28;20031;-76
2021/10/28 07:13:29;;;;;;;102.20;60.83;;;77.40;2227.20;;;;;;5094347;28;20028;-79
2021/10/28 07:22:19;;;;;;;105.43;66.28;;;77.50;2227.20;;;;;;5078901;28;20027;-80
2021/10/28 07:34:31;;;;;;;112.90;66.75;;;102.40;2227.20;;;;;;5095662;28;20024;-76
2021/10/28 07:55:06;;;;;;;106.28;64.35;;;102.70;2227.20;;;;;;5095544;28;20081;-75
2021/10/28 07:58:45;;;;;;;103.95;65.40;;;102.80;2227.20;;;;;;5095210;28;20055;-74
2021/10/28 08:17:37;;;;;;;94.15;61.13;;;128.10;2252.80;;;;;;5094231;28;20022;-75
2021/10/28 08:20:08;;;;;;;97.03;62.42;;;128.30;2252.80;;;;;;5093516;28;20024;-77
2021/10/28 08:22:43;;;;;;;87.45;57.83;;;128.20;2252.80;;;;;;5093110;28;20028;-75
2021/10/28 08:30:38;;;;;;;88.85;55.13;;;128.50;2252.80;;;;;;5094197;28;20027;-74
2021/10/28 08:33:04;;;;;;;102.82;63.25;;;128.40;2252.80;;;;;;5093491;28;20081;-75
2021/10/28 08:35:32;;;;;;;108.95;65.38;;;128.40;2252.80;;;;;;5094265;28;20047;-76
2021/10/28 08:37:59;;;;;;;111.80;72.00;;;128.40;2252.80;;;;;;5094248;28;20020;-79
2021/10/28 08:40:25;;;;;;;89.20;58.97;;;128.50;2252.80;;;;;;5094464;28;20016;-78
2021/10/28 08:42:52;;;;;;;92.95;60.65;;;128.60;2252.80;;;;;;5093104;28;20032;-75
2021/10/28 08:45:20;;;;;;;105.57;67.65;;;128.80;2252.80;;;;;;5094080;28;20027;-77
2021/10/28 08:47:58;;;;;;;91.25;62.60;;;128.90;2252.80;;;;;;5094400;28;20031;-75
2021/10/28 08:55:39;;;;;;;100.65;61.67;;;153.90;2252.80;;;;;;5094373;28;20073;-76
2021/10/28 09:26:49;;;;;;;65.30;44.83;;;204.80;2252.80;;;;;;5093387;28;20144;-76
2021/10/28 09:32:04;;;;;;;80.28;54.33;;;205.20;2252.80;;;;;;5093902;28;20020;-77
2021/10/28 09:45:51;;;;;;;88.30;62.22;;;230.60;2252.80;;;;;;5093455;28;20478;-77
2021/10/28 09:51:09;;;;;;;91.72;66.97;;;230.90;2252.80;;;;;;5093627;28;20020;-77
2021/10/28 09:59:32;;;;;;;119.97;84.53;;;256.20;2252.80;;;;;;5093309;28;20103;-77
2021/10/28 10:02:10;;;;;;;59.20;46.47;;;256.20;2252.80;;;;;;5091650;28;20472;-76
2021/10/28 10:04:38;;;;;;;76.25;58.55;;;256.20;2252.80;;;;;;5092222;28;20459;-77
2021/10/28 10:07:06;;;;;;;61.50;46.13;;;256.50;2252.80;;;;;;5092093;28;20414;-75
2021/10/28 10:09:36;;;;;;;80.20;62.42;;;256.70;2252.80;;;;;;5091615;28;20048;-76
2021/10/28 10:12:02;;;;;;;58.65;44.45;;;256.90;2252.80;;;;;;5093519;28;20024;-76
2021/10/28 10:14:30;;;;;;;65.15;52.83;;;281.70;2278.40;;;;;;5093399;28;20099;-75
2021/10/28 10:16:56;;;;;;;55.25;42.83;;;281.70;2278.40;;;;;;5093378;28;20024;-76
2021/10/28 10:19:34;;;;;;;55.35;42.50;;;281.70;2278.40;;;;;;5093562;28;20026;-76
2021/10/28 10:22:16;;;;;;;52.47;41.85;;;281.70;2278.40;;;;;;5092271;28;20020;-76
2021/10/28 10:24:59;;;;;;;55.72;43.15;;;281.70;2278.40;;;;;;5091725;28;20051;-75
2021/10/28 10:28:13;;;;;;;;;;;281.90;2278.40;;;;;;5094287;28;20054;-74
2021/10/28 12:55:51;;;;;;;28.65;21.20;;;486.50;1971.20;;;;;;5094134;28;20023;-75
2021/10/28 13:50:58;;;;;;;26.33;20.20;;;461.40;1945.60;;;;;;5093787;28;20028;-76
2021/10/28 13:56:22;;;;;;;30.13;24.25;;;460.90;1996.80;;;;;;5093730;28;20059;-77
2021/10/28 13:59:08;;;;;;;37.22;26.13;;;436.00;1971.20;;;;;;5092388;28;20016;-77
2021/10/28 14:27:04;;;;;;;44.80;32.47;;;409.70;2252.80;;;;;;5096805;28;20027;-76
2021/10/28 15:29:06;;;;;;;93.93;59.97;;;333.40;2329.60;;;;;;5096037;28;20367;-80
2021/10/28 15:34:36;;;;;;;83.47;54.60;;;333.20;2329.60;;;;;;5096142;28;20115;-80
2021/10/28 15:51:11;;;;;;;124.63;87.10;;;308.10;2304.00;;;;;;5095469;28;20089;-80
2021/10/28 16:22:55;;;;;;;135.02;96.72;;;307.30;2304.00;;;;;;5094977;28;20042;-79
2021/10/28 16:25:21;;;;;;;110.88;82.18;;;307.20;2304.00;;;;;;5093685;28;20016;-78
2021/10/28 16:27:47;;;;;;;119.68;83.70;;;282.50;2278.40;;;;;;5093444;28;20024;-78
2021/10/28 16:30:13;;;;;;;117.85;89.70;;;282.50;2278.40;;;;;;5093505;28;20123;-79
2021/10/28 16:32:39;;;;;;;140.73;104.65;;;282.50;2278.40;;;;;;5094994;28;20432;-78
2021/10/28 16:35:05;;;;;;;158.90;118.03;;;282.50;2278.40;;;;;;5093034;28;20456;-79
2021/10/28 16:37:34;;;;;;;153.50;114.93;;;307.50;2304.00;;;;;;5093450;28;20058;-78
2021/10/28 16:40:00;;;;;;;146.02;109.13;;;282.40;2278.40;;;;;;5094819;28;20024;-78
2021/10/28 16:42:26;;;;;;;155.68;115.07;;;282.40;2278.40;;;;;;5092965;28;20031;-79
2021/10/28 16:44:51;;;;;;;133.52;100.30;;;282.20;2278.40;;;;;;5093463;28;20024;-78
2021/10/28 16:47:17;;;;;;;109.00;87.70;;;282.20;2278.40;;;;;;5092975;28;20490;-78
2021/10/28 16:49:43;;;;;;;105.57;83.47;;;282.20;2278.40;;;;;;5094173;28;20020;-78
2021/10/28 16:52:09;;;;;;;103.68;77.57;;;282.10;2278.40;;;;;;5093257;28;20470;-79
2021/10/28 16:54:36;;;;;;;107.40;81.70;;;282.10;2278.40;;;;;;5093979;28;20024;-79
2021/10/28 16:57:02;;;;;;;117.75;88.03;;;281.90;2278.40;;;;;;5095175;28;20455;-80
2021/10/28 16:59:28;;;;;;;176.65;130.95;;;282.00;2278.40;;;;;;5093499;28;20056;-79
2021/10/28 17:01:55;;;;;;;190.35;141.65;;;281.90;2278.40;;;;;;5092827;28;20059;-80
2021/10/28 17:04:22;;;;;;;219.85;159.70;;;282.00;2278.40;;;;;;5092790;28;20438;-80
2021/10/28 17:06:50;;;;;;;262.73;191.68;;;281.80;2278.40;;;;;;5093117;28;20020;-80
2021/10/28 17:09:16;;;;;;;234.88;175.45;;;282.00;2278.40;;;;;;5092489;28;20081;-79
2021/10/28 17:11:42;;;;;;;289.67;210.27;;;281.80;2278.40;;;;;;5094509;28;20501;-80
2021/10/28 17:14:08;;;;;;;241.63;174.48;;;281.80;2278.40;;;;;;5094912;28;20024;-78
2021/10/28 17:16:36;;;;;;;259.88;181.95;;;281.80;2278.40;;;;;;5093399;28;20118;-78
2021/10/28 17:19:03;;;;;;;325.80;228.55;;;281.70;2278.40;;;;;;5093397;28;20020;-78
2021/10/28 17:21:29;;;;;;;360.33;253.00;;;281.60;2278.40;;;;;;5094920;28;20035;-79
2021/10/28 17:24:04;;;;;;;381.17;276.05;;;281.60;2278.40;;;;;;5092515;28;20032;-78
2021/10/28 17:26:31;;;;;;;394.73;281.88;;;281.60;2278.40;;;;;;5093653;28;20024;-78
2021/10/28 17:29:01;;;;;;;361.42;261.13;;;281.60;2278.40;;;;;;5095404;28;20038;-79
2021/10/28 17:31:32;;;;;;;397.48;276.98;;;281.60;2278.40;;;;;;5092713;28;20024;-79
2021/10/28 17:33:59;;;;;;;391.10;273.48;;;256.60;2252.80;;;;;;5095968;28;20368;-78
2021/10/28 17:36:27;;;;;;;343.08;245.63;;;256.80;2252.80;;;;;;5092490;28;20016;-79
2021/10/28 17:38:53;;;;;;;340.00;242.93;;;256.70;2252.80;;;;;;5092778;28;20026;-77
2021/10/28 17:41:20;;;;;;;270.77;188.05;;;256.70;2252.80;;;;;;5092258;28;20024;-77
2021/10/28 17:43:51;;;;;;;246.85;174.05;;;256.80;2252.80;;;;;;5091771;28;20024;-77
2021/10/28 17:46:18;;;;;;;245.83;179.73;;;256.40;2252.80;;;;;;5093997;28;20024;-78
2021/10/28 17:48:44;;;;;;;272.77;194.88;;;256.60;2252.80;;;;;;5098026;28;20305;-78
2021/10/28 17:51:10;;;;;;;275.98;204.35;;;256.50;2252.80;;;;;;5095839;28;20020;-78
2021/10/28 17:53:37;;;;;;;279.02;204.32;;;256.40;2252.80;;;;;;5096024;28;20375;-78
2021/10/28 17:56:03;;;;;;;257.98;186.15;;;256.40;2252.80;;;;;;5096359;28;20024;-78
2021/10/28 17:58:29;;;;;;;249.18;183.23;;;256.40;2252.80;;;;;;5097562;28;20074;-78
2021/10/28 18:00:55;;;;;;;255.10;191.38;;;256.20;2252.80;;;;;;5095833;28;20044;-78
2021/10/28 18:03:23;;;;;;;255.90;183.98;;;256.20;2252.80;;;;;;5096140;28;20032;-78
2021/10/28 18:05:51;;;;;;;284.13;203.38;;;256.20;2252.80;;;;;;5095716;28;20053;-78
2021/10/28 18:08:17;;;;;;;319.10;231.73;;;256.20;2252.80;;;;;;5097183;28;20020;-78
2021/10/28 18:10:44;;;;;;;359.58;264.38;;;231.20;2252.80;;;;;;5096613;28;20024;-79
2021/10/28 18:13:12;;;;;;;340.30;254.85;;;256.00;2252.80;;;;;;5096582;28;20363;-78
2021/10/28 18:15:42;;;;;;;367.50;275.77;;;256.00;2252.80;;;;;;5097010;28;20024;-78
2021/10/28 18:18:08;;;;;;;372.98;277.10;;;231.20;2252.80;;;;;;5095967;28;20028;-77
2021/10/28 18:20:38;;;;;;;382.27;280.40;;;231.30;2252.80;;;;;;5095542;28;20050;-78
2021/10/28 18:23:06;;;;;;;379.40;276.50;;;231.20;2252.80;;;;;;5096828;28;20036;-76
2021/10/28 18:25:33;;;;;;;404.52;292.05;;;231.20;2252.80;;;;;;5095819;28;20032;-78
2021/10/28 18:28:00;;;;;;;489.48;355.08;;;231.20;2252.80;;;;;;5097583;28;20066;-76
2021/10/28 18:30:28;;;;;;;426.55;305.08;;;231.10;2252.80;;;;;;5096692;28;20344;-79
2021/10/28 18:32:55;;;;;;;415.23;296.95;;;231.10;2252.80;;;;;;5097754;28;20050;-79
2021/10/28 18:35:21;;;;;;;346.67;254.27;;;231.20;2252.80;;;;;;5096969;28;20106;-79
2021/10/28 18:37:49;;;;;;;327.48;239.05;;;231.10;2252.80;;;;;;5097880;28;20463;-78
2021/10/28 18:40:16;;;;;;;331.05;238.88;;;231.10;2252.80;;;;;;5097386;28;20455;-78
2021/10/28 18:42:43;;;;;;;340.70;245.73;;;231.00;2252.80;;;;;;5095362;28;20471;-77
2021/10/28 18:45:09;;;;;;;419.45;288.90;;;231.00;2252.80;;;;;;5095457;28;20016;-78
2021/10/28 18:47:36;;;;;;;449.60;302.80;;;230.90;2252.80;;;;;;5095041;28;20020;-78
2021/10/28 18:50:04;;;;;;;381.73;271.02;;;230.90;2252.80;;;;;;5095423;28;20340;-77
2021/10/28 18:52:30;;;;;;;363.58;267.77;;;230.90;2252.80;;;;;;5095336;28;20064;-78
2021/10/28 18:54:58;;;;;;;355.50;256.25;;;230.80;2252.80;;;;;;5095034;28;20034;-79
2021/10/28 18:57:23;;;;;;;309.90;227.63;;;230.90;2252.80;;;;;;5095318;28;20031;-79
2021/10/28 18:59:49;;;;;;;306.83;217.60;;;230.80;2252.80;;;;;;5094239;28;20020;-77
2021/10/28 19:02:16;;;;;;;347.05;246.32;;;230.70;2252.80;;;;;;5095211;28;20085;-78
2021/10/28 19:04:42;;;;;;;303.27;210.95;;;230.70;2252.80;;;;;;5095133;28;20046;-78
2021/10/28 19:07:10;;;;;;;279.38;197.15;;;230.70;2252.80;;;;;;5096168;28;20444;-79
2021/10/28 19:09:36;;;;;;;274.35;185.20;;;230.70;2252.80;;;;;;5095596;28;20406;-79
2021/10/28 19:12:02;;;;;;;252.13;179.02;;;230.70;2252.80;;;;;;5094526;28;20051;-78
2021/10/28 19:14:29;;;;;;;246.75;179.80;;;230.70;2252.80;;;;;;5094577;28;20165;-79
2021/10/28 19:16:55;;;;;;;261.25;194.77;;;230.70;2252.80;;;;;;5094622;28;20116;-77
2021/10/28 19:19:21;;;;;;;241.75;178.85;;;230.60;2252.80;;;;;;5094417;28;20055;-77
2021/10/28 19:21:48;;;;;;;265.13;198.15;;;230.50;2252.80;;;;;;5094351;28;20028;-76
2021/10/28 19:24:14;;;;;;;333.52;237.93;;;230.60;2252.80;;;;;;5094718;28;20126;-78
2021/10/28 19:26:40;;;;;;;337.08;243.80;;;230.60;2252.80;;;;;;5094351;28;20023;-78
2021/10/28 19:29:08;;;;;;;407.38;280.98;;;230.60;2252.80;;;;;;5094311;28;20016;-76
2021/10/28 19:31:37;;;;;;;413.73;284.90;;;230.60;2252.80;;;;;;5095916;28;20463;-77
2021/10/28 19:34:04;;;;;;;425.20;297.15;;;230.40;2252.80;;;;;;5094851;28;20028;-77
2021/10/28 19:36:52;;;;;;;385.20;267.05;;;230.40;2252.80;;;;;;5095187;28;20099;-78
2021/10/28 19:47:08;;;;;;;362.65;250.75;;;205.70;2252.80;;;;;;5095820;28;20023;-80
2021/10/28 19:49:34;;;;;;;333.67;230.40;;;205.70;2252.80;;;;;;5094148;28;20024;-79
2021/10/28 19:52:06;;;;;;;295.30;210.32;;;205.40;2252.80;;;;;;5095088;28;20020;-79
2021/10/28 19:54:34;;;;;;;314.48;227.40;;;205.60;2252.80;;;;;;5095124;28;20118;-80
2021/10/28 19:57:00;;;;;;;290.95;208.27;;;205.60;2252.80;;;;;;5094348;28;20047;-80
2021/10/28 19:59:29;;;;;;;279.17;200.63;;;205.60;2252.80;;;;;;5096598;28;20444;-80
2021/10/28 20:01:58;;;;;;;258.17;187.95;;;205.50;2252.80;;;;;;5096213;28;20048;-80
2021/10/28 20:04:35;;;;;;;279.98;203.05;;;205.60;2252.80;;;;;;5093398;28;20054;-79
2021/10/28 20:07:13;;;;;;;278.38;195.52;;;205.60;2252.80;;;;;;5095391;28;20012;-78
2021/10/28 20:15:25;;;;;;;292.30;203.73;;;205.40;2252.80;;;;;;5094666;28;20372;-78
2021/10/28 20:20:38;;;;;;;299.20;194.70;;;205.30;2252.80;;;;;;5094949;28;20031;-79
2021/10/28 20:23:04;;;;;;;363.70;217.40;;;205.40;2252.80;;;;;;5093494;28;20491;-79
2021/10/28 20:25:30;;;;;;;265.48;168.18;;;205.30;2252.80;;;;;;5093456;28;20475;-80
2021/10/28 20:28:02;;;;;;;271.25;180.65;;;205.40;2252.80;;;;;;5093462;28;20024;-80
2021/10/28 20:30:39;;;;;;;283.67;189.55;;;205.40;2252.80;;;;;;5093347;28;20602;-79
2021/10/28 20:33:05;;;;;;;272.75;185.77;;;205.30;2252.80;;;;;;5094269;28;20020;-80
2021/10/28 20:38:06;;;;;;;219.65;143.75;;;205.20;2252.80;;;;;;5094543;28;20020;-78
2021/10/28 20:40:32;;;;;;;210.75;131.75;;;205.10;2252.80;;;;;;5093054;28;20023;-79
2021/10/28 20:42:58;;;;;;;198.90;132.80;;;205.10;2252.80;;;;;;5092804;28;20053;-79
2021/10/28 20:45:26;;;;;;;204.32;130.38;;;205.10;2252.80;;;;;;5093977;28;20139;-78
2021/10/28 20:47:53;;;;;;;206.35;132.75;;;180.00;2252.80;;;;;;5092240;28;20019;-78
2021/10/28 20:50:22;;;;;;;194.40;123.28;;;180.10;2252.80;;;;;;5078480;28;20020;-78
2021/10/28 20:52:49;;;;;;;193.02;125.38;;;204.90;2252.80;;;;;;5092946;28;20371;-79
2021/10/28 20:55:15;;;;;;;163.38;111.68;;;180.10;2252.80;;;;;;5092960;28;20017;-78
2021/10/28 20:57:41;;;;;;;169.45;115.53;;;204.90;2252.80;;;;;;5092612;28;20449;-78